ARG1826 SAVC-SACO
Flight info
| Callsign | ARG1826 |
|---|---|
| Flight time | N/A |
| Altitude | FL370 |
| Route | GATU2C GATUD UP664 TRE UT700 SIMES SIME1Q |
| Aircraft | B738/M-SDE2E3FGHIRWXY/LB1 |
Departure
| Time | N/A |
|---|---|
| Airport | General Enrique Mosconi International Airport (SAVC) |
Arrival
| Time | 2026-04-28 21:17 |
|---|---|
| Airport | Ingeniero Aeronáutico Ambrosio L.V. Taravella International Airport (SACO) |
| Time | Latitude | Longitude | Altitude | Speed | Heading |
|---|---|---|---|---|---|
| 2026-04-28 20:54 | -32.56858 | -63.64140 | 23497 ft | 424 kts | 8° |
| 2026-04-28 20:55 | -32.53946 | -63.63701 | 22994 ft | 421 kts | 8° |
| 2026-04-28 20:55 | -32.51060 | -63.63267 | 22549 ft | 417 kts | 8° |
| 2026-04-28 20:55 | -32.48197 | -63.62836 | 22103 ft | 414 kts | 8° |
| 2026-04-28 20:55 | -32.45386 | -63.62414 | 21660 ft | 402 kts | 8° |
| 2026-04-28 20:56 | -32.42656 | -63.62005 | 21244 ft | 392 kts | 8° |
| 2026-04-28 20:56 | -32.39986 | -63.61604 | 20842 ft | 382 kts | 8° |
| 2026-04-28 20:56 | -32.37378 | -63.61213 | 20457 ft | 377 kts | 8° |
| 2026-04-28 20:56 | -32.34785 | -63.60824 | 20050 ft | 376 kts | 8° |
| 2026-04-28 20:57 | -32.32196 | -63.60435 | 19646 ft | 376 kts | 8° |
| 2026-04-28 20:57 | -32.29612 | -63.60047 | 19241 ft | 375 kts | 8° |
| 2026-04-28 20:57 | -32.27029 | -63.59660 | 18841 ft | 375 kts | 8° |
| 2026-04-28 20:57 | -32.24445 | -63.59274 | 18436 ft | 375 kts | 8° |
| 2026-04-28 20:58 | -32.21864 | -63.58888 | 17993 ft | 374 kts | 8° |
| 2026-04-28 20:58 | -32.19290 | -63.58503 | 17571 ft | 373 kts | 8° |
| 2026-04-28 20:58 | -32.16729 | -63.58120 | 17173 ft | 371 kts | 7° |
| 2026-04-28 20:58 | -32.14177 | -63.57739 | 16747 ft | 370 kts | 7° |
| 2026-04-28 20:59 | -32.11641 | -63.57361 | 16344 ft | 368 kts | 7° |
| 2026-04-28 20:59 | -32.09109 | -63.56983 | 15938 ft | 367 kts | 7° |
| 2026-04-28 20:59 | -32.06587 | -63.56607 | 15522 ft | 366 kts | 7° |
| 2026-04-28 20:59 | -32.04062 | -63.56565 | 15089 ft | 364 kts | 350° |
| 2026-04-28 21:00 | -32.01601 | -63.57140 | 14716 ft | 359 kts | 347° |
| 2026-04-28 21:00 | -31.99190 | -63.57771 | 14307 ft | 351 kts | 346° |
| 2026-04-28 21:00 | -31.96846 | -63.58393 | 13912 ft | 343 kts | 346° |
| 2026-04-28 21:00 | -31.94548 | -63.58994 | 13491 ft | 335 kts | 346° |
| 2026-04-28 21:01 | -31.92310 | -63.59570 | 13125 ft | 326 kts | 347° |
| 2026-04-28 21:01 | -31.90125 | -63.60124 | 12754 ft | 318 kts | 347° |
| 2026-04-28 21:01 | -31.87994 | -63.60660 | 12395 ft | 310 kts | 346° |
| 2026-04-28 21:01 | -31.85904 | -63.61182 | 12067 ft | 306 kts | 347° |
| 2026-04-28 21:02 | -31.83825 | -63.61700 | 11714 ft | 305 kts | 346° |
| 2026-04-28 21:02 | -31.81755 | -63.62214 | 11379 ft | 304 kts | 346° |
| 2026-04-28 21:02 | -31.79676 | -63.62731 | 11048 ft | 309 kts | 347° |
| 2026-04-28 21:02 | -31.77553 | -63.63257 | 10682 ft | 315 kts | 347° |
| 2026-04-28 21:03 | -31.75426 | -63.63782 | 10386 ft | 308 kts | 347° |
| 2026-04-28 21:03 | -31.73386 | -63.64286 | 10220 ft | 294 kts | 347° |
| 2026-04-28 21:03 | -31.71432 | -63.64767 | 10081 ft | 280 kts | 347° |
| 2026-04-28 21:03 | -31.69569 | -63.65226 | 9915 ft | 269 kts | 347° |
| 2026-04-28 21:04 | -31.67747 | -63.65676 | 9634 ft | 268 kts | 347° |
| 2026-04-28 21:04 | -31.65933 | -63.66126 | 9374 ft | 267 kts | 347° |
| 2026-04-28 21:04 | -31.64104 | -63.66578 | 9108 ft | 273 kts | 347° |
| 2026-04-28 21:04 | -31.62233 | -63.67040 | 8822 ft | 276 kts | 347° |
| 2026-04-28 21:05 | -31.60374 | -63.67498 | 8519 ft | 270 kts | 347° |
| 2026-04-28 21:05 | -31.58568 | -63.67943 | 8254 ft | 262 kts | 347° |
| 2026-04-28 21:05 | -31.56807 | -63.68376 | 7989 ft | 258 kts | 347° |
| 2026-04-28 21:05 | -31.55059 | -63.68807 | 7732 ft | 257 kts | 347° |
| 2026-04-28 21:06 | -31.53319 | -63.69235 | 7475 ft | 256 kts | 348° |
| 2026-04-28 21:06 | -31.51581 | -63.69663 | 7215 ft | 256 kts | 348° |
| 2026-04-28 21:06 | -31.49846 | -63.70089 | 6950 ft | 255 kts | 347° |
| 2026-04-28 21:06 | -31.48112 | -63.70515 | 6685 ft | 255 kts | 347° |
| 2026-04-28 21:07 | -31.46394 | -63.70988 | 6394 ft | 255 kts | 339° |
| 2026-04-28 21:07 | -31.44912 | -63.72099 | 6099 ft | 255 kts | 315° |
| 2026-04-28 21:07 | -31.43904 | -63.73770 | 5948 ft | 252 kts | 297° |
| 2026-04-28 21:07 | -31.43450 | -63.75722 | 5844 ft | 251 kts | 277° |
| 2026-04-28 21:08 | -31.43417 | -63.77752 | 5780 ft | 249 kts | 273° |
| 2026-04-28 21:08 | -31.43428 | -63.79784 | 5670 ft | 251 kts | 272° |
| 2026-04-28 21:08 | -31.43443 | -63.81817 | 5588 ft | 249 kts | 272° |
| 2026-04-28 21:08 | -31.43456 | -63.83842 | 5510 ft | 249 kts | 273° |
| 2026-04-28 21:09 | -31.43466 | -63.85851 | 5415 ft | 246 kts | 273° |
| 2026-04-28 21:09 | -31.43474 | -63.87837 | 5325 ft | 243 kts | 273° |
| 2026-04-28 21:09 | -31.43479 | -63.89798 | 5240 ft | 240 kts | 273° |
| 2026-04-28 21:09 | -31.43483 | -63.91729 | 5151 ft | 233 kts | 272° |
| 2026-04-28 21:10 | -31.43487 | -63.93566 | 5077 ft | 218 kts | 273° |
| 2026-04-28 21:10 | -31.43491 | -63.95286 | 4999 ft | 207 kts | 273° |
| 2026-04-28 21:10 | -31.43493 | -63.96953 | 4921 ft | 203 kts | 272° |
| 2026-04-28 21:10 | -31.43491 | -63.98568 | 4821 ft | 195 kts | 274° |
| 2026-04-28 21:11 | -31.43494 | -64.00121 | 4719 ft | 189 kts | 272° |
| 2026-04-28 21:11 | -31.43497 | -64.01625 | 4656 ft | 184 kts | 273° |
| 2026-04-28 21:11 | -31.43497 | -64.03097 | 4586 ft | 179 kts | 274° |
| 2026-04-28 21:11 | -31.43496 | -64.04545 | 4509 ft | 179 kts | 274° |
| 2026-04-28 21:12 | -31.43494 | -64.06002 | 4374 ft | 179 kts | 274° |
| 2026-04-28 21:12 | -31.43497 | -64.07444 | 4243 ft | 176 kts | 275° |
| 2026-04-28 21:12 | -31.43495 | -64.08863 | 4127 ft | 175 kts | 274° |
| 2026-04-28 21:12 | -31.43496 | -64.10284 | 4077 ft | 175 kts | 274° |
| 2026-04-28 21:13 | -31.43494 | -64.11720 | 3937 ft | 176 kts | 275° |
| 2026-04-28 21:13 | -31.43495 | -64.13141 | 3818 ft | 176 kts | 275° |
| 2026-04-28 21:13 | -31.43489 | -64.14566 | 3780 ft | 171 kts | 275° |
| 2026-04-28 21:13 | -31.43445 | -64.15913 | 3584 ft | 160 kts | 289° |
| 2026-04-28 21:14 | -31.42816 | -64.16852 | 3509 ft | 147 kts | 330° |
| 2026-04-28 21:14 | -31.41945 | -64.17475 | 3330 ft | 146 kts | 331° |
| 2026-04-28 21:14 | -31.41090 | -64.18079 | 3173 ft | 143 kts | 332° |
| 2026-04-28 21:14 | -31.40243 | -64.18675 | 3040 ft | 143 kts | 332° |
| 2026-04-28 21:15 | -31.39380 | -64.19281 | 2908 ft | 146 kts | 332° |
| 2026-04-28 21:15 | -31.38500 | -64.19896 | 2709 ft | 147 kts | 332° |
| 2026-04-28 21:15 | -31.37633 | -64.20511 | 2528 ft | 145 kts | 332° |
| 2026-04-28 21:15 | -31.36678 | -64.20766 | 2356 ft | 142 kts | 12° |
| 2026-04-28 21:16 | -31.35706 | -64.20597 | 2149 ft | 148 kts | 352° |
| 2026-04-28 21:16 | -31.34759 | -64.21032 | 2068 ft | 144 kts | 351° |
| 2026-04-28 21:16 | -31.33778 | -64.20892 | 2011 ft | 149 kts | 13° |
| 2026-04-28 21:16 | -31.32749 | -64.20806 | 1710 ft | 146 kts | 0° |
| 2026-04-28 21:17 | -31.31766 | -64.20834 | 1635 ft | 138 kts | 1° |
| 2026-04-28 21:17 | -31.30788 | -64.20846 | 1625 ft | 143 kts | 4° |
| 2026-04-28 21:17 | -31.29881 | -64.20851 | 1613 ft | 79 kts | 358° |
| 2026-04-28 21:17 | -31.29652 | -64.20891 | 1612 ft | 17 kts | 343° |
| 2026-04-28 21:18 | -31.29625 | -64.20864 | 1611 ft | 5 kts | 116° |
| 2026-04-28 21:18 | -31.29661 | -64.20854 | 1618 ft | 7 kts | 177° |
| 2026-04-28 21:18 | -31.29711 | -64.20853 | 1617 ft | 7 kts | 179° |
| 2026-04-28 21:18 | -31.29764 | -64.20852 | 1617 ft | 8 kts | 179° |
| 2026-04-28 21:19 | -31.29817 | -64.20852 | 1614 ft | 7 kts | 179° |
| 2026-04-28 21:19 | -31.29868 | -64.20851 | 1614 ft | 7 kts | 179° |
| 2026-04-28 21:19 | -31.29925 | -64.20851 | 1615 ft | 9 kts | 181° |
| 2026-04-28 21:19 | -31.29993 | -64.20851 | 1617 ft | 10 kts | 179° |
| 2026-04-28 21:20 | -31.30065 | -64.20850 | 1617 ft | 10 kts | 179° |
| 2026-04-28 21:20 | -31.30145 | -64.20848 | 1615 ft | 13 kts | 179° |
| 2026-04-28 21:20 | -31.30247 | -64.20847 | 1622 ft | 16 kts | 179° |
| 2026-04-28 21:20 | -31.30373 | -64.20845 | 1614 ft | 20 kts | 179° |
| 2026-04-28 21:21 | -31.30503 | -64.20843 | 1617 ft | 15 kts | 179° |
| 2026-04-28 21:21 | -31.30613 | -64.20841 | 1616 ft | 16 kts | 179° |
| 2026-04-28 21:21 | -31.30724 | -64.20841 | 1620 ft | 16 kts | 180° |
| 2026-04-28 21:21 | -31.30830 | -64.20838 | 1613 ft | 15 kts | 179° |
| 2026-04-28 21:22 | -31.30932 | -64.20837 | 1615 ft | 14 kts | 180° |
| 2026-04-28 21:22 | -31.31030 | -64.20836 | 1618 ft | 14 kts | 179° |
| 2026-04-28 21:22 | -31.31123 | -64.20835 | 1616 ft | 13 kts | 179° |
| 2026-04-28 21:22 | -31.31183 | -64.20833 | 1617 ft | 13 kts | 178° |
| 2026-04-28 21:23 | -31.31300 | -64.20831 | 1617 ft | 12 kts | 180° |
| 2026-04-28 21:23 | -31.31385 | -64.20831 | 1615 ft | 12 kts | 181° |
| 2026-04-28 21:23 | -31.31459 | -64.20866 | 1614 ft | 12 kts | 239° |
| 2026-04-28 21:23 | -31.31465 | -64.20964 | 1612 ft | 13 kts | 270° |
| 2026-04-28 21:24 | -31.31472 | -64.21066 | 1616 ft | 12 kts | 260° |
| 2026-04-28 21:24 | -31.31483 | -64.21140 | 1614 ft | 6 kts | 263° |
| 2026-04-28 21:24 | -31.31485 | -64.21164 | 1612 ft | 2 kts | 264° |
| 2026-04-28 21:24 | -31.31486 | -64.21175 | 1612 ft | 1 kts | 262° |
| 2026-04-28 21:25 | -31.31487 | -64.21179 | 1612 ft | 0 kts | 262° |
| 2026-04-28 21:25 | -31.31487 | -64.21180 | 1612 ft | 0 kts | 261° |
| 2026-04-28 21:50 | -31.31486 | -64.21174 | 1612 ft | 4 kts | 261° |
| 2026-04-28 21:50 | -31.31481 | -64.21143 | 1613 ft | 4 kts | 257° |
| 2026-04-28 21:50 | -31.31474 | -64.21112 | 1619 ft | 4 kts | 252° |
| 2026-04-28 21:50 | -31.31465 | -64.21083 | 1618 ft | 4 kts | 241° |
| 2026-04-28 21:51 | -31.31450 | -64.21060 | 1616 ft | 2 kts | 216° |
| 2026-04-28 21:51 | -31.31448 | -64.21059 | 1616 ft | 0 kts | 214° |
| 2026-04-28 21:55 | -31.31451 | -64.21061 | 1612 ft | 3 kts | 214° |
| 2026-04-28 21:56 | -31.31481 | -64.21078 | 1612 ft | 6 kts | 192° |
| 2026-04-28 21:56 | -31.31520 | -64.21080 | 1618 ft | 6 kts | 182° |
| 2026-04-28 21:56 | -31.31556 | -64.21092 | 1616 ft | 5 kts | 206° |
| 2026-04-28 21:56 | -31.31593 | -64.21101 | 1618 ft | 5 kts | 182° |
| 2026-04-28 21:57 | -31.31630 | -64.21101 | 1614 ft | 5 kts | 178° |
| 2026-04-28 21:57 | -31.31667 | -64.21100 | 1614 ft | 5 kts | 179° |
| 2026-04-28 21:57 | -31.31706 | -64.21099 | 1614 ft | 7 kts | 173° |
| 2026-04-28 21:57 | -31.31758 | -64.21059 | 1618 ft | 12 kts | 143° |
| 2026-04-28 21:58 | -31.31847 | -64.21028 | 1614 ft | 15 kts | 179° |
| 2026-04-28 21:58 | -31.31957 | -64.21027 | 1614 ft | 16 kts | 180° |
| 2026-04-28 21:58 | -31.32073 | -64.21026 | 1617 ft | 17 kts | 178° |
| 2026-04-28 21:58 | -31.32187 | -64.21023 | 1619 ft | 16 kts | 180° |
| 2026-04-28 21:59 | -31.32281 | -64.21021 | 1617 ft | 10 kts | 178° |
| 2026-04-28 21:59 | -31.32349 | -64.21019 | 1614 ft | 9 kts | 179° |
| 2026-04-28 21:59 | -31.32402 | -64.21002 | 1617 ft | 7 kts | 143° |
| 2026-04-28 22:00 | -31.32437 | -64.20929 | 1616 ft | 5 kts | 95° |
| 2026-04-28 22:00 | -31.32429 | -64.20889 | 1614 ft | 5 kts | 64° |
| 2026-04-28 22:00 | -31.32409 | -64.20856 | 1616 ft | 5 kts | 53° |
| 2026-04-28 22:00 | -31.32380 | -64.20830 | 1618 ft | 9 kts | 26° |
| 2026-04-28 22:01 | -31.32063 | -64.20819 | 1618 ft | 83 kts | 359° |
| 2026-04-28 22:01 | -31.31263 | -64.20828 | 1617 ft | 146 kts | 358° |
| 2026-04-28 22:01 | -31.30192 | -64.20857 | 2242 ft | 136 kts | 359° |
| 2026-04-28 22:01 | -31.29315 | -64.20893 | 3180 ft | 130 kts | 359° |
| 2026-04-28 22:02 | -31.28322 | -64.20893 | 3498 ft | 158 kts | 359° |
| 2026-04-28 22:02 | -31.27117 | -64.20899 | 3836 ft | 190 kts | 359° |
| 2026-04-28 22:02 | -31.25758 | -64.20918 | 4314 ft | 202 kts | 358° |
| 2026-04-28 22:02 | -31.24271 | -64.20938 | 4480 ft | 226 kts | 359° |
| 2026-04-28 22:03 | -31.22667 | -64.20949 | 4953 ft | 235 kts | 358° |
| 2026-04-28 22:03 | -31.21012 | -64.20982 | 5500 ft | 242 kts | 357° |
| 2026-04-28 22:03 | -31.19327 | -64.21458 | 5884 ft | 260 kts | 336° |
| 2026-04-28 22:03 | -31.17777 | -64.22608 | 6519 ft | 270 kts | 323° |
| 2026-04-28 22:04 | -31.16294 | -64.23995 | 7291 ft | 275 kts | 321° |
| 2026-04-28 22:04 | -31.14797 | -64.25416 | 8079 ft | 281 kts | 321° |
| 2026-04-28 22:04 | -31.13280 | -64.26878 | 8863 ft | 286 kts | 314° |
| 2026-04-28 22:04 | -31.12207 | -64.28815 | 9646 ft | 288 kts | 288° |
| 2026-04-28 22:05 | -31.11876 | -64.31105 | 10378 ft | 291 kts | 270° |
| 2026-04-28 22:05 | -31.11857 | -64.33555 | 10629 ft | 315 kts | 268° |
| 2026-04-28 22:05 | -31.11886 | -64.36202 | 10814 ft | 339 kts | 268° |
| 2026-04-28 22:05 | -31.11914 | -64.39022 | 11156 ft | 355 kts | 268° |
| 2026-04-28 22:06 | -31.11926 | -64.41927 | 11771 ft | 361 kts | 268° |
| 2026-04-28 22:06 | -31.11926 | -64.44866 | 12497 ft | 364 kts | 268° |
| 2026-04-28 22:06 | -31.11917 | -64.47837 | 13178 ft | 369 kts | 268° |
| 2026-04-28 22:06 | -31.11908 | -64.50846 | 13821 ft | 374 kts | 267° |
| 2026-04-28 22:07 | -31.12128 | -64.53860 | 14399 ft | 374 kts | 255° |
| 2026-04-28 22:07 | -31.12751 | -64.56803 | 15024 ft | 375 kts | 251° |
| 2026-04-28 22:07 | -31.13426 | -64.59751 | 15640 ft | 378 kts | 251° |
| 2026-04-28 22:07 | -31.14090 | -64.62730 | 16243 ft | 382 kts | 252° |
| 2026-04-28 22:08 | -31.14733 | -64.65747 | 16814 ft | 386 kts | 252° |
| 2026-04-28 22:08 | -31.15366 | -64.68804 | 17378 ft | 390 kts | 252° |
| 2026-04-28 22:08 | -31.15997 | -64.71886 | 17977 ft | 392 kts | 252° |
| 2026-04-28 22:08 | -31.16632 | -64.74987 | 18499 ft | 395 kts | 252° |
| 2026-04-28 22:09 | -31.17273 | -64.78111 | 19010 ft | 398 kts | 252° |
| 2026-04-28 22:09 | -31.17917 | -64.81258 | 19543 ft | 400 kts | 252° |
| 2026-04-28 22:09 | -31.18564 | -64.84417 | 20052 ft | 403 kts | 252° |
| 2026-04-28 22:09 | -31.19215 | -64.87602 | 20576 ft | 405 kts | 252° |
| 2026-04-28 22:10 | -31.19877 | -64.90802 | 21085 ft | 407 kts | 250° |
| 2026-04-28 22:10 | -31.20954 | -64.93811 | 21542 ft | 401 kts | 234° |
| 2026-04-28 22:10 | -31.22449 | -64.96550 | 22103 ft | 401 kts | 233° |
| 2026-04-28 22:10 | -31.23965 | -64.99270 | 22717 ft | 400 kts | 233° |
| 2026-04-28 22:11 | -31.25469 | -65.01981 | 23418 ft | 397 kts | 233° |
| 2026-04-28 22:11 | -31.26949 | -65.04681 | 24038 ft | 394 kts | 233° |
| 2026-04-28 22:11 | -31.28409 | -65.07371 | 24611 ft | 392 kts | 233° |
| 2026-04-28 22:11 | -31.29857 | -65.10054 | 25179 ft | 390 kts | 233° |
| 2026-04-28 22:12 | -31.31291 | -65.12720 | 25741 ft | 387 kts | 233° |
| 2026-04-28 22:12 | -31.32724 | -65.15388 | 25981 ft | 388 kts | 233° |
| 2026-04-28 22:12 | -31.34146 | -65.18040 | 26000 ft | 384 kts | 233° |
| 2026-04-28 22:12 | -31.35568 | -65.20690 | 26002 ft | 387 kts | 233° |
| 2026-04-28 22:13 | -31.36996 | -65.23353 | 26004 ft | 387 kts | 233° |
| 2026-04-28 22:13 | -31.38380 | -65.26055 | 25989 ft | 391 kts | 240° |
| 2026-04-28 22:13 | -31.39204 | -65.29106 | 25994 ft | 401 kts | 256° |
| 2026-04-28 22:13 | -31.39499 | -65.32356 | 25998 ft | 403 kts | 260° |
| 2026-04-28 22:14 | -31.39706 | -65.35628 | 25988 ft | 404 kts | 261° |
| 2026-04-28 22:14 | -31.39887 | -65.38907 | 25984 ft | 404 kts | 261° |
| 2026-04-28 22:14 | -31.40068 | -65.42182 | 25977 ft | 404 kts | 261° |
| 2026-04-28 22:14 | -31.40258 | -65.45453 | 25973 ft | 403 kts | 261° |
| 2026-04-28 22:15 | -31.40456 | -65.48717 | 25973 ft | 402 kts | 261° |
| 2026-04-28 22:15 | -31.40661 | -65.51973 | 25971 ft | 402 kts | 261° |
| 2026-04-28 22:15 | -31.40870 | -65.55226 | 25968 ft | 401 kts | 261° |
| 2026-04-28 22:15 | -31.41080 | -65.58474 | 25968 ft | 401 kts | 261° |
| 2026-04-28 22:16 | -31.41290 | -65.61713 | 25967 ft | 400 kts | 261° |
| 2026-04-28 22:16 | -31.41500 | -65.64952 | 25965 ft | 400 kts | 261° |
| 2026-04-28 22:16 | -31.41709 | -65.68185 | 25962 ft | 399 kts | 261° |
| 2026-04-28 22:16 | -31.41917 | -65.71421 | 25962 ft | 399 kts | 261° |
| 2026-04-28 22:17 | -31.42124 | -65.74651 | 25958 ft | 399 kts | 261° |
| 2026-04-28 22:17 | -31.42331 | -65.77882 | 25956 ft | 399 kts | 261° |
| 2026-04-28 22:17 | -31.42536 | -65.81114 | 25958 ft | 399 kts | 261° |
| 2026-04-28 22:17 | -31.42741 | -65.84346 | 25957 ft | 399 kts | 261° |
| 2026-04-28 22:18 | -31.42944 | -65.87573 | 25958 ft | 399 kts | 261° |
| 2026-04-28 22:18 | -31.43147 | -65.90805 | 25954 ft | 399 kts | 261° |
| 2026-04-28 22:18 | -31.43349 | -65.94034 | 25955 ft | 398 kts | 261° |
| 2026-04-28 22:18 | -31.43550 | -65.97262 | 25956 ft | 398 kts | 261° |
| 2026-04-28 22:19 | -31.43750 | -66.00490 | 25953 ft | 398 kts | 261° |
| 2026-04-28 22:19 | -31.43949 | -66.03719 | 25954 ft | 398 kts | 261° |
| 2026-04-28 22:19 | -31.44147 | -66.06943 | 25953 ft | 398 kts | 261° |
| 2026-04-28 22:19 | -31.44345 | -66.10166 | 25954 ft | 398 kts | 261° |
| 2026-04-28 22:20 | -31.44541 | -66.13388 | 25953 ft | 397 kts | 261° |
| 2026-04-28 22:20 | -31.44736 | -66.16606 | 25950 ft | 397 kts | 261° |
| 2026-04-28 22:20 | -31.44931 | -66.19825 | 25953 ft | 397 kts | 261° |
| 2026-04-28 22:20 | -31.45124 | -66.23037 | 25951 ft | 396 kts | 261° |
| 2026-04-28 22:21 | -31.45317 | -66.26251 | 25946 ft | 396 kts | 261° |
| 2026-04-28 22:21 | -31.45509 | -66.29464 | 25940 ft | 396 kts | 261° |
| 2026-04-28 22:21 | -31.45699 | -66.32666 | 25940 ft | 395 kts | 261° |
| 2026-04-28 22:21 | -31.45888 | -66.35868 | 25942 ft | 395 kts | 261° |
| 2026-04-28 22:22 | -31.46077 | -66.39066 | 25938 ft | 394 kts | 261° |
| 2026-04-28 22:22 | -31.46265 | -66.42263 | 25936 ft | 394 kts | 262° |
| 2026-04-28 22:22 | -31.46451 | -66.45459 | 25935 ft | 394 kts | 262° |
| 2026-04-28 22:22 | -31.46637 | -66.48647 | 25931 ft | 393 kts | 262° |
| 2026-04-28 22:23 | -31.46822 | -66.51837 | 25929 ft | 393 kts | 262° |
| 2026-04-28 22:23 | -31.47006 | -66.55026 | 25925 ft | 393 kts | 262° |
| 2026-04-28 22:23 | -31.47189 | -66.58210 | 25922 ft | 393 kts | 262° |
| 2026-04-28 22:23 | -31.47370 | -66.61384 | 25914 ft | 389 kts | 262° |
| 2026-04-28 22:24 | -31.47544 | -66.64488 | 25900 ft | 376 kts | 262° |
| 2026-04-28 22:24 | -31.47713 | -66.67507 | 25900 ft | 369 kts | 262° |
| 2026-04-28 22:24 | -31.47883 | -66.70495 | 25903 ft | 369 kts | 262° |
| 2026-04-28 22:24 | -31.48054 | -66.73492 | 25826 ft | 371 kts | 262° |
| 2026-04-28 22:25 | -31.48224 | -66.76501 | 25558 ft | 368 kts | 262° |
| 2026-04-28 22:25 | -31.48389 | -66.79474 | 25171 ft | 366 kts | 262° |
| 2026-04-28 22:25 | -31.48554 | -66.82427 | 24804 ft | 363 kts | 262° |
| 2026-04-28 22:25 | -31.48716 | -66.85357 | 24427 ft | 360 kts | 263° |
| 2026-04-28 22:26 | -31.48881 | -66.88268 | 24043 ft | 357 kts | 262° |
| 2026-04-28 22:26 | -31.49230 | -66.91124 | 23675 ft | 353 kts | 257° |
| 2026-04-28 22:26 | -31.49677 | -66.93937 | 23277 ft | 351 kts | 257° |
| 2026-04-28 22:26 | -31.50141 | -66.96729 | 22838 ft | 349 kts | 256° |
| 2026-04-28 22:27 | -31.50603 | -66.99503 | 22430 ft | 346 kts | 257° |
| 2026-04-28 22:27 | -31.51058 | -67.02258 | 22032 ft | 344 kts | 257° |
| 2026-04-28 22:27 | -31.51505 | -67.04991 | 21648 ft | 341 kts | 257° |
| 2026-04-28 22:27 | -31.51945 | -67.07708 | 21268 ft | 339 kts | 257° |
| 2026-04-28 22:28 | -31.52378 | -67.10403 | 20889 ft | 336 kts | 257° |
| 2026-04-28 22:28 | -31.52808 | -67.13083 | 20515 ft | 334 kts | 257° |
| 2026-04-28 22:28 | -31.53232 | -67.15745 | 20151 ft | 332 kts | 257° |
| 2026-04-28 22:28 | -31.53655 | -67.18398 | 19775 ft | 331 kts | 257° |
| 2026-04-28 22:29 | -31.54075 | -67.21040 | 19414 ft | 329 kts | 258° |
| 2026-04-28 22:29 | -31.54492 | -67.23669 | 19048 ft | 328 kts | 258° |
| 2026-04-28 22:29 | -31.54908 | -67.26295 | 18664 ft | 328 kts | 258° |
| 2026-04-28 22:29 | -31.55322 | -67.28914 | 18284 ft | 328 kts | 258° |
| 2026-04-28 22:30 | -31.55735 | -67.31531 | 17877 ft | 327 kts | 258° |
| 2026-04-28 22:30 | -31.56147 | -67.34144 | 17493 ft | 326 kts | 258° |
| 2026-04-28 22:30 | -31.56557 | -67.36742 | 17112 ft | 324 kts | 258° |
| 2026-04-28 22:30 | -31.56964 | -67.39333 | 16745 ft | 323 kts | 258° |
| 2026-04-28 22:31 | -31.57368 | -67.41906 | 16368 ft | 321 kts | 258° |
| 2026-04-28 22:31 | -31.57770 | -67.44472 | 16013 ft | 319 kts | 258° |
| 2026-04-28 22:31 | -31.58170 | -67.47022 | 15648 ft | 318 kts | 258° |
| 2026-04-28 22:31 | -31.58566 | -67.49558 | 15294 ft | 316 kts | 258° |
| 2026-04-28 22:32 | -31.58960 | -67.52079 | 14951 ft | 315 kts | 258° |
| 2026-04-28 22:32 | -31.59352 | -67.54591 | 14597 ft | 313 kts | 258° |
| 2026-04-28 22:32 | -31.59742 | -67.57096 | 14246 ft | 312 kts | 259° |
| 2026-04-28 22:32 | -31.60130 | -67.59590 | 13912 ft | 311 kts | 259° |
| 2026-04-28 22:33 | -31.60511 | -67.62044 | 13745 ft | 303 kts | 259° |
| 2026-04-28 22:33 | -31.60887 | -67.64466 | 13418 ft | 301 kts | 259° |
| 2026-04-28 22:33 | -31.61259 | -67.66865 | 13101 ft | 298 kts | 259° |
| 2026-04-28 22:33 | -31.61628 | -67.69248 | 12787 ft | 296 kts | 259° |
| 2026-04-28 22:34 | -31.61994 | -67.71614 | 12476 ft | 294 kts | 259° |
| 2026-04-28 22:34 | -31.62357 | -67.73967 | 12166 ft | 293 kts | 260° |
| 2026-04-28 22:34 | -31.62718 | -67.76307 | 11860 ft | 292 kts | 260° |
| 2026-04-28 22:34 | -31.63077 | -67.78641 | 11552 ft | 291 kts | 261° |
| 2026-04-28 22:35 | -31.63435 | -67.80966 | 11242 ft | 290 kts | 261° |
| 2026-04-28 22:35 | -31.63791 | -67.83282 | 10937 ft | 289 kts | 261° |
| 2026-04-28 22:35 | -31.64209 | -67.85583 | 10630 ft | 289 kts | 257° |
| 2026-04-28 22:35 | -31.64737 | -67.87846 | 10341 ft | 288 kts | 256° |
| 2026-04-28 22:36 | -31.65291 | -67.90094 | 10100 ft | 285 kts | 256° |
| 2026-04-28 22:36 | -31.65831 | -67.92291 | 9971 ft | 278 kts | 256° |
| 2026-04-28 22:36 | -31.66357 | -67.94452 | 9754 ft | 276 kts | 256° |
| 2026-04-28 22:36 | -31.66879 | -67.96618 | 9448 ft | 277 kts | 256° |
| 2026-04-28 22:37 | -31.67399 | -67.98788 | 9157 ft | 277 kts | 256° |
| 2026-04-28 22:37 | -31.67918 | -68.00962 | 8875 ft | 277 kts | 256° |
| 2026-04-28 22:37 | -31.68432 | -68.03136 | 8572 ft | 277 kts | 256° |
| 2026-04-28 22:37 | -31.68946 | -68.05304 | 8288 ft | 276 kts | 256° |
| 2026-04-28 22:38 | -31.69460 | -68.07475 | 8007 ft | 277 kts | 256° |
| 2026-04-28 22:38 | -31.69974 | -68.09648 | 7691 ft | 277 kts | 256° |
| 2026-04-28 22:38 | -31.70146 | -68.10376 | 7602 ft | 277 kts | 256° |
| 2026-04-28 22:38 | -31.71001 | -68.13992 | 7140 ft | 276 kts | 256° |
| 2026-04-28 22:39 | -31.71511 | -68.16163 | 6837 ft | 276 kts | 257° |
| 2026-04-28 22:39 | -31.72019 | -68.18326 | 6555 ft | 275 kts | 257° |
| 2026-04-28 22:39 | -31.72525 | -68.20480 | 6260 ft | 274 kts | 257° |
| 2026-04-28 22:39 | -31.73029 | -68.22628 | 6019 ft | 271 kts | 257° |
| 2026-04-28 22:40 | -31.73515 | -68.24695 | 5963 ft | 255 kts | 257° |
| 2026-04-28 22:40 | -31.73973 | -68.26647 | 5882 ft | 242 kts | 257° |
| 2026-04-28 22:40 | -31.74407 | -68.28505 | 5783 ft | 231 kts | 257° |
| 2026-04-28 22:40 | -31.74826 | -68.30267 | 5716 ft | 218 kts | 257° |
| 2026-04-28 22:41 | -31.75028 | -68.31955 | 5646 ft | 201 kts | 273° |
| 2026-04-28 22:41 | -31.75016 | -68.33555 | 5547 ft | 193 kts | 272° |
| 2026-04-28 22:41 | -31.75017 | -68.35106 | 5347 ft | 189 kts | 272° |
| 2026-04-28 22:41 | -31.75022 | -68.36644 | 5136 ft | 188 kts | 271° |
| 2026-04-28 22:42 | -31.75039 | -68.38177 | 4842 ft | 188 kts | 272° |
| 2026-04-28 22:42 | -31.75037 | -68.39698 | 4627 ft | 185 kts | 276° |
| 2026-04-28 22:42 | -31.74546 | -68.41029 | 4328 ft | 176 kts | 321° |
| 2026-04-28 22:42 | -31.73466 | -68.41498 | 4063 ft | 170 kts | 358° |
| 2026-04-28 22:43 | -31.72322 | -68.41582 | 3881 ft | 157 kts | 355° |
| 2026-04-28 22:43 | -31.71275 | -68.41672 | 3800 ft | 149 kts | 357° |
| 2026-04-28 22:43 | -31.70216 | -68.41699 | 3768 ft | 154 kts | 0° |
| 2026-04-28 22:43 | -31.69153 | -68.41716 | 3713 ft | 156 kts | 0° |
| 2026-04-28 22:44 | -31.68085 | -68.41706 | 3649 ft | 148 kts | 0° |
| 2026-04-28 22:44 | -31.67047 | -68.41759 | 3562 ft | 150 kts | 0° |
| 2026-04-28 22:44 | -31.66022 | -68.41709 | 3429 ft | 146 kts | 360° |
| 2026-04-28 22:44 | -31.64981 | -68.41734 | 3192 ft | 151 kts | 3° |
| 2026-04-28 22:45 | -31.63951 | -68.41744 | 3010 ft | 147 kts | 358° |
| 2026-04-28 22:45 | -31.62943 | -68.41774 | 2842 ft | 146 kts | 0° |
| 2026-04-28 22:45 | -31.61928 | -68.41781 | 2644 ft | 146 kts | 1° |
| 2026-04-28 22:45 | -31.60936 | -68.41792 | 2481 ft | 142 kts | 360° |
| 2026-04-28 22:46 | -31.59930 | -68.41801 | 2263 ft | 146 kts | 1° |
| 2026-04-28 22:46 | -31.58928 | -68.41805 | 2051 ft | 142 kts | 1° |
| 2026-04-28 22:46 | -31.57947 | -68.41821 | 1964 ft | 139 kts | 0° |
| 2026-04-28 22:46 | -31.57050 | -68.41840 | 1956 ft | 127 kts | 2° |
| 2026-04-28 22:47 | -31.56360 | -68.41842 | 1957 ft | 49 kts | 358° |
| 2026-04-28 22:47 | -31.56110 | -68.41868 | 1956 ft | 8 kts | 341° |
| 2026-04-28 22:47 | -31.56085 | -68.41857 | 1956 ft | 1 kts | 86° |
| 2026-04-28 22:47 | -31.56105 | -68.41840 | 1956 ft | 8 kts | 163° |
| 2026-04-28 22:48 | -31.56187 | -68.41836 | 1957 ft | 7 kts | 184° |
| 2026-04-28 22:48 | -31.56204 | -68.41838 | 1957 ft | 5 kts | 185° |
| 2026-04-28 22:48 | -31.56270 | -68.41843 | 1957 ft | 15 kts | 184° |
| 2026-04-28 22:48 | -31.56366 | -68.41838 | 1957 ft | 12 kts | 177° |
| 2026-04-28 22:49 | -31.56481 | -68.41838 | 1956 ft | 21 kts | 181° |
| 2026-04-28 22:49 | -31.56606 | -68.41837 | 1955 ft | 13 kts | 179° |
| 2026-04-28 22:49 | -31.56691 | -68.41840 | 1955 ft | 12 kts | 187° |
| 2026-04-28 22:49 | -31.56765 | -68.41879 | 1954 ft | 10 kts | 218° |
| 2026-04-28 22:50 | -31.56809 | -68.41927 | 1956 ft | 8 kts | 225° |
| 2026-04-28 22:50 | -31.56851 | -68.41978 | 1955 ft | 9 kts | 225° |
| 2026-04-28 22:50 | -31.56897 | -68.42031 | 1953 ft | 10 kts | 225° |
| 2026-04-28 22:50 | -31.56960 | -68.42049 | 1953 ft | 10 kts | 176° |
| 2026-04-28 22:51 | -31.57036 | -68.42047 | 1953 ft | 11 kts | 180° |
| 2026-04-28 22:51 | -31.57119 | -68.42047 | 1953 ft | 12 kts | 180° |
| 2026-04-28 22:51 | -31.57209 | -68.42048 | 1952 ft | 13 kts | 180° |
| 2026-04-28 22:51 | -31.57305 | -68.42049 | 1952 ft | 14 kts | 180° |
| 2026-04-28 22:52 | -31.57345 | -68.42081 | 1952 ft | 5 kts | 300° |
| 2026-04-28 22:52 | -31.57321 | -68.42111 | 1952 ft | 5 kts | 314° |
| 2026-04-28 22:52 | -31.57292 | -68.42145 | 1952 ft | 6 kts | 314° |
| 2026-04-28 22:52 | -31.57256 | -68.42172 | 1952 ft | 6 kts | 349° |
| 2026-04-28 22:53 | -31.57214 | -68.42157 | 1952 ft | 7 kts | 26° |
| 2026-04-28 22:53 | -31.57172 | -68.42137 | 1953 ft | 6 kts | 10° |
| 2026-04-28 22:53 | -31.57127 | -68.42141 | 1953 ft | 7 kts | 338° |
| 2026-04-28 22:53 | -31.57096 | -68.42175 | 1953 ft | 5 kts | 294° |
| 2026-04-28 22:54 | -31.57091 | -68.42194 | 1953 ft | 0 kts | 254° |
| 2026-04-28 22:54 | -31.57091 | -68.42195 | 1953 ft | 1 kts | 249° |
| 2026-04-28 22:54 | -31.57093 | -68.42204 | 1953 ft | 0 kts | 255° |
| 2026-04-28 22:54 | -31.57094 | -68.42205 | 1953 ft | 0 kts | 256° |